Flight Information

DEPARTURE
RIVERSIDE, CA
Elevation:
818
Runways:
16/34 - 2850x50 - ASPH-F
9/27 - 5401x100 - ASPH-G
H1 - 60x60 - ASPH-G
Active PE Departure:
27
Current PE ATIS:
X
Altimeter:
29.92
Remarks:
ATIS:
128.8 951-688-7257
Ground:
121.7
Tower:
121
DESTINATION
,
Elevation:
TPA:
1000 (est.)


6748.4 NM74° True-14° Var60° HDG

Flight Plan:
(click to file on line)

1. Type
2. Aircraft Identification
3. Aircraft Type / Special Equipment
4. True Airspeed
kts
5. Departure Airport
(ICAO code)
6. Arriving Airport
(ICAO code)
7. Cruising Altitude
ft
8. Alternate Airport
(ICAO code)
9. Route of Flight
10. Remarks


00:00:00 Departure ATIS: Destination ATIS:

Clearance Limit:
Route:
Altitude: Expect in minutes
Frequency:
Transponder: (7500 Hijack / 7600 Lost Comms / 7700 Emergency)


KRAL 010353Z 07003KT 10SM CLR 29/07 A2992 RMK AO2 SLP114 T02890067
Time: 2020-10-01T03:53:00Z
1601524894
Winds: 70 @ 3 kts
Visibility: 10.0 sm
Clouds (AGL): CLR
Temperature: 28.9 C
Dew Point: 6.7 C
Pressure: 29.920275 in Hgbr


Notes:

Data extracted from FAA Digital Chart Supplement. Effective: 0901Z Thursday, Sep 10, 2020 to 0901Z Thursday, Nov 5, 2020
Current ATIS data is provided courtisy of PilotEdge.